Time;durP1;ratioP1;P1;durP2;ratioP2;P2;SDS_P1;SDS_P2;PMS_P1;PMS_P2;Temp;Humidity;BMP_temperature;BMP_pressure;BME280_temperature;BME280_humidity;BME280_pressure;Samples;Min_cycle;Max_cycle;Signal;HPM_P1;HPM_P2
2023/01/06 00:00:02;;;;;;;9.25;2.60;;;;;;;;;;6348768;22;20034;-83
2023/01/06 00:02:28;;;;;;;9.77;2.65;;;;;;;;;;6320687;22;20525;-83
2023/01/06 00:04:55;;;;;;;10.63;2.50;;;;;;;;;;6322868;22;20427;-83
2023/01/06 00:07:21;;;;;;;11.77;3.00;;;;;;;;;;6349381;22;20023;-85
2023/01/06 00:09:48;;;;;;;14.73;2.83;;;;;;;;;;6347198;22;20023;-84
2023/01/06 00:12:14;;;;;;;9.13;2.47;;;;;;;;;;6348835;22;20015;-86
2023/01/06 00:14:41;;;;;;;8.27;2.47;;;;;;;;;;6345919;22;20623;-85
2023/01/06 00:17:08;;;;;;;7.28;2.70;;;;;;;;;;6348825;22;20110;-85
2023/01/06 00:19:35;;;;;;;7.30;3.20;;;;;;;;;;6350488;22;20125;-86
2023/01/06 00:22:01;;;;;;;8.68;2.95;;;;;;;;;;6350683;22;20015;-83
2023/01/06 00:24:27;;;;;;;10.13;3.83;;;;;;;;;;6347722;22;20016;-84
2023/01/06 00:26:54;;;;;;;8.02;3.83;;;;;;;;;;6349989;22;20054;-82
2023/01/06 00:29:20;;;;;;;12.40;4.95;;;;;;;;;;6349296;22;20019;-82
2023/01/06 00:31:46;;;;;;;8.48;3.75;;;;;;;;;;6350028;22;20114;-83
2023/01/06 00:34:13;;;;;;;12.15;4.70;;;;;;;;;;6322387;22;20033;-85
2023/01/06 00:36:39;;;;;;;12.05;4.45;;;;;;;;;;6350581;22;20038;-84
2023/01/06 00:39:06;;;;;;;14.63;5.25;;;;;;;;;;6350031;22;20065;-83
2023/01/06 00:44:17;;;;;;;11.90;5.63;;;;;;;;;;6351007;22;20023;-82
2023/01/06 00:46:43;;;;;;;14.98;5.70;;;;;;;;;;6322335;22;20051;-85
2023/01/06 00:49:10;;;;;;;12.90;5.60;;;;;;;;;;6350495;22;21371;-85
2023/01/06 00:51:37;;;;;;;16.70;6.05;;;;;;;;;;6350556;22;20025;-82
2023/01/06 00:54:08;;;;;;;15.20;6.13;;;;;;;;;;6350334;22;20019;-85
2023/01/06 00:56:35;;;;;;;10.35;5.78;;;;;;;;;;6349575;22;20085;-86
2023/01/06 00:59:02;;;;;;;15.35;5.45;;;;;;;;;;6347132;22;20043;-83
2023/01/06 01:01:28;;;;;;;14.05;5.13;;;;;;;;;;6350922;22;20118;-84
2023/01/06 01:03:55;;;;;;;10.90;4.78;;;;;;;;;;6351074;22;20031;-84
2023/01/06 01:06:21;;;;;;;10.93;4.18;;;;;;;;;;6348636;22;20027;-85
2023/01/06 01:08:51;;;;;;;9.48;4.30;;;;;;;;;;6349382;22;20011;-81
2023/01/06 01:14:03;;;;;;;10.70;3.80;;;;;;;;;;6351014;22;20466;-83
2023/01/06 01:16:30;;;;;;;8.55;3.85;;;;;;;;;;6320567;22;20023;-82
2023/01/06 01:18:56;;;;;;;8.35;3.25;;;;;;;;;;6347364;22;20077;-83
2023/01/06 01:21:23;;;;;;;11.50;3.58;;;;;;;;;;6320888;22;20057;-82
2023/01/06 01:23:49;;;;;;;8.75;3.85;;;;;;;;;;6321409;22;20023;-85
2023/01/06 01:26:16;;;;;;;12.07;3.30;;;;;;;;;;6349761;22;20022;-84
2023/01/06 01:28:42;;;;;;;6.88;2.78;;;;;;;;;;6349004;22;20029;-83
2023/01/06 01:31:09;;;;;;;7.40;3.00;;;;;;;;;;6349536;22;20023;-81
2023/01/06 01:33:36;;;;;;;9.95;3.10;;;;;;;;;;6347957;22;20020;-84
2023/01/06 01:36:07;;;;;;;5.78;2.70;;;;;;;;;;6348487;22;20054;-82
2023/01/06 01:38:33;;;;;;;5.00;2.38;;;;;;;;;;6349819;22;20072;-84
2023/01/06 01:41:00;;;;;;;7.43;2.28;;;;;;;;;;6348071;22;20033;-85
2023/01/06 01:43:56;;;;;;;8.82;2.55;;;;;;;;;;6347619;22;20012;-85
2023/01/06 01:46:31;;;;;;;8.45;2.50;;;;;;;;;;6324536;22;20228;-81
2023/01/06 01:49:00;;;;;;;6.22;2.42;;;;;;;;;;6322795;22;20019;-83
2023/01/06 01:51:29;;;;;;;7.07;2.60;;;;;;;;;;6349860;22;20023;-84
2023/01/06 01:53:57;;;;;;;7.03;2.60;;;;;;;;;;6349864;22;20026;-83
2023/01/06 01:56:27;;;;;;;9.23;2.60;;;;;;;;;;6348057;22;20746;-83
2023/01/06 01:58:59;;;;;;;10.70;2.53;;;;;;;;;;6348752;22;20098;-84
2023/01/06 02:01:26;;;;;;;10.68;2.70;;;;;;;;;;6348589;22;20118;-85
2023/01/06 02:03:52;;;;;;;8.52;2.55;;;;;;;;;;6348301;22;20007;-84
2023/01/06 02:06:20;;;;;;;6.28;2.78;;;;;;;;;;6348269;22;20012;-84
2023/01/06 02:09:02;;;;;;;7.63;3.50;;;;;;;;;;6319215;22;20118;-82
2023/01/06 02:11:30;;;;;;;6.57;3.13;;;;;;;;;;6346680;22;20027;-85
2023/01/06 02:14:06;;;;;;;9.80;3.65;;;;;;;;;;6349605;22;20839;-83
2023/01/06 02:16:53;;;;;;;8.98;4.40;;;;;;;;;;6348232;22;20031;-86
2023/01/06 02:19:22;;;;;;;10.43;4.13;;;;;;;;;;6284015;22;20038;-83
2023/01/06 02:22:13;;;;;;;10.02;4.13;;;;;;;;;;6346610;22;20023;-82
2023/01/06 02:24:42;;;;;;;7.90;3.90;;;;;;;;;;6347406;22;20777;-82
2023/01/06 02:27:28;;;;;;;10.70;4.60;;;;;;;;;;6348191;22;20023;-85
2023/01/06 02:29:57;;;;;;;9.00;4.10;;;;;;;;;;6321005;22;20019;-83
2023/01/06 02:32:42;;;;;;;9.98;4.72;;;;;;;;;;6345969;22;20059;-85
2023/01/06 02:35:31;;;;;;;8.90;4.13;;;;;;;;;;6348422;22;20019;-83
2023/01/06 02:38:16;;;;;;;10.10;4.18;;;;;;;;;;6348847;22;20015;-85
2023/01/06 02:40:49;;;;;;;10.18;4.60;;;;;;;;;;6349346;22;20038;-82
2023/01/06 02:43:35;;;;;;;10.73;4.00;;;;;;;;;;6346622;22;20026;-82
2023/01/06 02:46:07;;;;;;;9.98;4.65;;;;;;;;;;6348942;22;20436;-83
2023/01/06 02:48:53;;;;;;;17.52;4.60;;;;;;;;;;6319666;22;20023;-85
2023/01/06 02:51:26;;;;;;;11.00;5.10;;;;;;;;;;6348674;22;20051;-83
2023/01/06 02:54:15;;;;;;;9.55;3.95;;;;;;;;;;6321115;22;20089;-85
2023/01/06 02:56:44;;;;;;;11.38;4.28;;;;;;;;;;6345549;22;20023;-81
2023/01/06 02:59:31;;;;;;;7.47;4.10;;;;;;;;;;6319688;22;20015;-82
2023/01/06 03:01:59;;;;;;;10.35;3.40;;;;;;;;;;6320877;22;20026;-83
2023/01/06 03:04:29;;;;;;;9.20;4.10;;;;;;;;;;6348721;22;20046;-84
2023/01/06 03:06:56;;;;;;;10.97;4.33;;;;;;;;;;6321216;22;20034;-82
2023/01/06 03:09:26;;;;;;;7.95;3.90;;;;;;;;;;6348806;22;20022;-84
2023/01/06 03:11:53;;;;;;;8.18;3.60;;;;;;;;;;6347120;22;20094;-82
2023/01/06 03:14:25;;;;;;;7.68;3.13;;;;;;;;;;6344573;22;20145;-85
2023/01/06 03:16:51;;;;;;;7.18;3.72;;;;;;;;;;6319678;22;20503;-83
2023/01/06 03:19:18;;;;;;;9.15;3.33;;;;;;;;;;6347381;22;20011;-83
2023/01/06 03:21:45;;;;;;;8.52;3.03;;;;;;;;;;6348734;22;20027;-83
2023/01/06 03:24:12;;;;;;;7.40;2.95;;;;;;;;;;6349961;22;20019;-83
2023/01/06 03:26:38;;;;;;;6.70;2.83;;;;;;;;;;6345647;22;20409;-84
2023/01/06 03:29:06;;;;;;;8.00;2.80;;;;;;;;;;6348262;22;20007;-84
2023/01/06 03:31:36;;;;;;;6.13;2.65;;;;;;;;;;6346846;22;20015;-83
2023/01/06 03:34:21;;;;;;;9.13;2.92;;;;;;;;;;6346756;22;20023;-85
2023/01/06 03:36:51;;;;;;;7.35;2.60;;;;;;;;;;6345868;22;20077;-82
2023/01/06 03:39:18;;;;;;;7.07;2.60;;;;;;;;;;6346755;22;20015;-83
2023/01/06 03:44:41;;;;;;;6.35;2.50;;;;;;;;;;6346656;22;20711;-81
2023/01/06 03:47:14;;;;;;;7.80;2.95;;;;;;;;;;6320279;22;20003;-83
2023/01/06 03:50:03;;;;;;;8.27;2.50;;;;;;;;;;6348646;22;20127;-85
2023/01/06 03:52:30;;;;;;;6.53;2.35;;;;;;;;;;6320062;22;20047;-83
2023/01/06 03:55:09;;;;;;;5.35;2.42;;;;;;;;;;6320776;22;20023;-81
2023/01/06 03:57:38;;;;;;;6.55;2.08;;;;;;;;;;6348709;22;20016;-84
2023/01/06 04:00:08;;;;;;;7.38;2.17;;;;;;;;;;6345594;22;20027;-82
2023/01/06 04:02:35;;;;;;;7.07;2.15;;;;;;;;;;6348306;22;20965;-84
2023/01/06 04:05:12;;;;;;;6.95;2.03;;;;;;;;;;6349532;22;20051;-84
2023/01/06 04:07:40;;;;;;;4.20;1.90;;;;;;;;;;6321441;22;20018;-82
2023/01/06 04:10:06;;;;;;;9.13;2.10;;;;;;;;;;6346560;22;20428;-83
2023/01/06 04:12:39;;;;;;;5.07;1.77;;;;;;;;;;6320328;22;20024;-80
2023/01/06 04:15:10;;;;;;;6.05;2.22;;;;;;;;;;6321810;22;20008;-83
2023/01/06 04:17:38;;;;;;;7.45;1.90;;;;;;;;;;6348413;22;20042;-83
2023/01/06 04:20:05;;;;;;;4.43;1.60;;;;;;;;;;6321889;22;20071;-81
2023/01/06 04:22:32;;;;;;;7.40;2.05;;;;;;;;;;6348987;22;20083;-82
2023/01/06 04:24:58;;;;;;;6.82;1.80;;;;;;;;;;6318389;22;20058;-83
2023/01/06 04:27:25;;;;;;;6.75;1.85;;;;;;;;;;6318798;22;20496;-83
2023/01/06 04:29:51;;;;;;;3.92;1.60;;;;;;;;;;6345705;22;20026;-83
2023/01/06 04:32:17;;;;;;;10.15;1.77;;;;;;;;;;6320339;22;20017;-85
2023/01/06 04:34:44;;;;;;;6.57;1.70;;;;;;;;;;6346471;22;20008;-84
2023/01/06 04:37:10;;;;;;;6.20;1.88;;;;;;;;;;6345651;22;20389;-82
2023/01/06 04:39:36;;;;;;;6.18;1.70;;;;;;;;;;6319386;22;20022;-81
2023/01/06 04:42:03;;;;;;;5.40;1.50;;;;;;;;;;6348465;22;20027;-81
2023/01/06 04:44:29;;;;;;;6.78;1.60;;;;;;;;;;6320779;22;20025;-84
2023/01/06 04:46:55;;;;;;;5.90;1.58;;;;;;;;;;6347806;22;20067;-82
2023/01/06 04:49:22;;;;;;;4.78;1.73;;;;;;;;;;6347956;22;20103;-82
2023/01/06 04:51:48;;;;;;;3.60;1.40;;;;;;;;;;6350140;22;20586;-82
2023/01/06 04:54:15;;;;;;;3.67;1.58;;;;;;;;;;6349628;22;20015;-85
2023/01/06 04:56:41;;;;;;;5.85;2.03;;;;;;;;;;6347485;22;20949;-82
2023/01/06 04:59:07;;;;;;;6.13;1.73;;;;;;;;;;6346895;22;20019;-81
2023/01/06 05:01:35;;;;;;;4.82;1.77;;;;;;;;;;6348210;22;20114;-82
2023/01/06 05:04:02;;;;;;;10.18;2.15;;;;;;;;;;6347463;22;20027;-84
2023/01/06 05:06:28;;;;;;;5.28;2.13;;;;;;;;;;6349078;22;20077;-83
2023/01/06 05:08:55;;;;;;;4.55;1.55;;;;;;;;;;6347974;22;20023;-84
2023/01/06 05:11:22;;;;;;;5.78;2.00;;;;;;;;;;6348621;22;20353;-84
2023/01/06 05:13:49;;;;;;;5.57;1.98;;;;;;;;;;6347219;22;20081;-82
2023/01/06 05:16:17;;;;;;;9.90;2.20;;;;;;;;;;6346291;22;20048;-83
2023/01/06 05:18:43;;;;;;;5.32;2.13;;;;;;;;;;6350182;22;20050;-81
2023/01/06 05:21:10;;;;;;;5.80;2.00;;;;;;;;;;6348347;22;20216;-82
2023/01/06 05:23:37;;;;;;;5.35;1.75;;;;;;;;;;6345477;22;20075;-81
2023/01/06 05:26:04;;;;;;;4.65;1.80;;;;;;;;;;6346379;22;20016;-82
2023/01/06 05:28:30;;;;;;;3.90;1.83;;;;;;;;;;6346306;22;20030;-79
2023/01/06 05:31:03;;;;;;;5.65;2.00;;;;;;;;;;6345778;22;20050;-82
2023/01/06 05:33:30;;;;;;;5.68;1.90;;;;;;;;;;6346446;22;20042;-80
2023/01/06 05:36:07;;;;;;;7.63;1.90;;;;;;;;;;6347715;22;20015;-82
2023/01/06 05:38:33;;;;;;;5.40;1.90;;;;;;;;;;6319061;22;20488;-80
2023/01/06 05:41:00;;;;;;;4.80;2.00;;;;;;;;;;6347503;22;20012;-81
2023/01/06 05:43:27;;;;;;;5.65;2.08;;;;;;;;;;6347331;22;20829;-81
2023/01/06 05:45:53;;;;;;;4.13;2.10;;;;;;;;;;6347996;22;20016;-84
2023/01/06 05:48:23;;;;;;;5.80;2.15;;;;;;;;;;6319134;22;20101;-82
2023/01/06 05:50:49;;;;;;;6.43;1.95;;;;;;;;;;6347386;22;20020;-83
2023/01/06 05:53:16;;;;;;;4.50;2.00;;;;;;;;;;6345487;22;20031;-84
2023/01/06 05:55:42;;;;;;;5.55;2.08;;;;;;;;;;6350000;22;20027;-82
2023/01/06 05:58:09;;;;;;;5.43;2.30;;;;;;;;;;6348664;22;20011;-82
2023/01/06 06:00:35;;;;;;;4.43;2.03;;;;;;;;;;6348995;22;20007;-82
2023/01/06 06:03:02;;;;;;;6.10;2.10;;;;;;;;;;6347703;22;20102;-81
2023/01/06 06:05:28;;;;;;;5.53;2.00;;;;;;;;;;6347239;22;20604;-84
2023/01/06 06:07:55;;;;;;;5.72;2.08;;;;;;;;;;6348934;22;20038;-83
2023/01/06 06:10:21;;;;;;;4.10;1.70;;;;;;;;;;6321287;22;20387;-83
2023/01/06 06:12:51;;;;;;;4.25;1.80;;;;;;;;;;6349646;22;20060;-79
2023/01/06 06:15:18;;;;;;;3.83;1.90;;;;;;;;;;6349059;22;20068;-82
2023/01/06 06:17:44;;;;;;;5.05;2.42;;;;;;;;;;6348609;22;20045;-82
2023/01/06 06:20:11;;;;;;;5.82;2.30;;;;;;;;;;6321996;22;20043;-83
2023/01/06 06:22:37;;;;;;;8.13;2.35;;;;;;;;;;6349925;22;20026;-84
2023/01/06 06:25:04;;;;;;;4.78;2.03;;;;;;;;;;6349188;22;20034;-84
2023/01/06 06:27:30;;;;;;;6.90;1.98;;;;;;;;;;6347882;22;20775;-81
2023/01/06 06:29:56;;;;;;;4.25;2.00;;;;;;;;;;6347671;22;20011;-81
2023/01/06 06:32:23;;;;;;;6.93;2.33;;;;;;;;;;6348249;22;20019;-82
2023/01/06 06:34:49;;;;;;;6.13;2.10;;;;;;;;;;6348388;22;20019;-82
2023/01/06 06:37:16;;;;;;;5.05;1.70;;;;;;;;;;6347618;22;20472;-81
2023/01/06 06:39:42;;;;;;;6.93;2.47;;;;;;;;;;6349724;22;20059;-85
2023/01/06 06:42:08;;;;;;;4.30;2.35;;;;;;;;;;6350710;22;20049;-85
2023/01/06 06:44:35;;;;;;;9.80;2.17;;;;;;;;;;6348074;22;20030;-84
2023/01/06 06:47:01;;;;;;;4.07;1.92;;;;;;;;;;6347241;22;20038;-82
2023/01/06 06:49:27;;;;;;;6.32;2.28;;;;;;;;;;6348766;22;20015;-81
2023/01/06 06:51:54;;;;;;;4.65;2.38;;;;;;;;;;6320624;22;20023;-83
2023/01/06 06:54:21;;;;;;;5.38;2.45;;;;;;;;;;6346622;22;20225;-82
2023/01/06 06:56:47;;;;;;;7.47;2.40;;;;;;;;;;6346311;22;20031;-82
2023/01/06 06:59:13;;;;;;;4.35;2.42;;;;;;;;;;6347556;22;20050;-83
2023/01/06 07:01:40;;;;;;;7.55;2.38;;;;;;;;;;6321697;22;20059;-82
2023/01/06 07:04:07;;;;;;;5.68;2.70;;;;;;;;;;6348674;22;20263;-83
2023/01/06 07:06:33;;;;;;;7.72;3.15;;;;;;;;;;6348544;22;20023;-84
2023/01/06 07:09:00;;;;;;;6.43;2.80;;;;;;;;;;6345327;22;20536;-83
2023/01/06 07:11:26;;;;;;;6.07;3.00;;;;;;;;;;6342985;22;20027;-83
2023/01/06 07:13:52;;;;;;;6.45;3.28;;;;;;;;;;6345171;22;20011;-82
2023/01/06 07:16:21;;;;;;;7.53;3.60;;;;;;;;;;6344289;22;20122;-82
2023/01/06 07:18:48;;;;;;;9.13;4.03;;;;;;;;;;6316798;22;20015;-84
2023/01/06 07:21:14;;;;;;;10.02;4.28;;;;;;;;;;6314779;22;20039;-83
2023/01/06 07:23:41;;;;;;;8.50;4.22;;;;;;;;;;6343197;22;20025;-82
2023/01/06 07:26:08;;;;;;;9.40;4.90;;;;;;;;;;6315643;22;20069;-82
2023/01/06 07:28:34;;;;;;;11.77;4.97;;;;;;;;;;6343889;22;20094;-85
2023/01/06 07:31:01;;;;;;;11.65;5.03;;;;;;;;;;6343752;22;20023;-85
2023/01/06 07:33:28;;;;;;;9.68;4.90;;;;;;;;;;6316757;22;20077;-84
2023/01/06 07:35:55;;;;;;;10.73;5.57;;;;;;;;;;6346833;22;20030;-82
2023/01/06 07:38:22;;;;;;;7.78;4.30;;;;;;;;;;6347596;22;20073;-84
2023/01/06 07:40:49;;;;;;;10.30;4.80;;;;;;;;;;6347235;22;20503;-83
2023/01/06 07:43:16;;;;;;;10.10;4.57;;;;;;;;;;6317065;22;20452;-82
2023/01/06 07:45:44;;;;;;;7.22;4.13;;;;;;;;;;6345173;22;20008;-82
2023/01/06 07:48:11;;;;;;;7.57;3.88;;;;;;;;;;6346013;22;20023;-83
2023/01/06 07:50:37;;;;;;;8.45;4.28;;;;;;;;;;6345418;22;20054;-82
2023/01/06 07:53:03;;;;;;;9.93;4.38;;;;;;;;;;6340756;22;20023;-81
2023/01/06 07:55:30;;;;;;;8.85;4.22;;;;;;;;;;6316827;22;20699;-81
2023/01/06 07:57:57;;;;;;;8.57;4.40;;;;;;;;;;6343559;22;20012;-84
2023/01/06 08:00:24;;;;;;;9.02;4.63;;;;;;;;;;6345179;22;20023;-82
2023/01/06 08:02:53;;;;;;;9.50;4.22;;;;;;;;;;6342902;22;20035;-83
2023/01/06 08:05:19;;;;;;;7.20;3.83;;;;;;;;;;6342444;22;20023;-83
2023/01/06 08:07:46;;;;;;;11.15;4.20;;;;;;;;;;6315559;22;20054;-82
2023/01/06 08:10:12;;;;;;;8.57;3.50;;;;;;;;;;6314866;22;20024;-82
2023/01/06 08:12:38;;;;;;;5.72;3.08;;;;;;;;;;6342490;22;20042;-80
2023/01/06 08:15:05;;;;;;;8.18;3.70;;;;;;;;;;6342407;22;20098;-83
2023/01/06 08:17:31;;;;;;;5.97;3.22;;;;;;;;;;6342410;22;20023;-84
2023/01/06 08:19:58;;;;;;;7.95;3.08;;;;;;;;;;6341752;22;20067;-83
2023/01/06 08:22:27;;;;;;;7.57;3.03;;;;;;;;;;6342479;22;20023;-82
2023/01/06 08:24:54;;;;;;;7.95;3.30;;;;;;;;;;6315645;22;20045;-82
2023/01/06 08:27:20;;;;;;;10.63;2.97;;;;;;;;;;6342360;22;20322;-82
2023/01/06 08:29:48;;;;;;;9.23;3.03;;;;;;;;;;6341793;22;20038;-81
2023/01/06 08:32:15;;;;;;;7.53;2.60;;;;;;;;;;6342353;22;20630;-83
2023/01/06 08:34:41;;;;;;;6.38;3.10;;;;;;;;;;6341066;22;20027;-83
2023/01/06 08:37:08;;;;;;;9.02;3.17;;;;;;;;;;6343192;22;20498;-82
2023/01/06 08:39:34;;;;;;;7.80;2.75;;;;;;;;;;6315740;22;20008;-84
2023/01/06 08:42:00;;;;;;;9.15;2.72;;;;;;;;;;6345770;22;20030;-85
2023/01/06 08:44:27;;;;;;;8.13;2.70;;;;;;;;;;6345862;22;20018;-83
2023/01/06 08:46:53;;;;;;;7.03;2.47;;;;;;;;;;6346031;22;20027;-82
2023/01/06 08:49:19;;;;;;;10.82;2.70;;;;;;;;;;6345967;22;20022;-82
2023/01/06 08:51:48;;;;;;;6.25;2.55;;;;;;;;;;6347149;22;20010;-81
2023/01/06 08:54:15;;;;;;;9.15;2.63;;;;;;;;;;6345331;22;20029;-82
2023/01/06 08:56:43;;;;;;;10.45;2.55;;;;;;;;;;6316868;22;20045;-84
2023/01/06 08:59:12;;;;;;;7.90;2.50;;;;;;;;;;6344921;22;20030;-83
2023/01/06 09:01:38;;;;;;;7.47;2.65;;;;;;;;;;6342953;22;20038;-81
2023/01/06 09:04:06;;;;;;;10.55;2.67;;;;;;;;;;6345032;22;20015;-83
2023/01/06 09:06:32;;;;;;;15.23;2.72;;;;;;;;;;6345936;22;20033;-83
2023/01/06 09:08:58;;;;;;;13.95;3.33;;;;;;;;;;6343790;22;20020;-83
2023/01/06 09:11:25;;;;;;;12.98;3.13;;;;;;;;;;6345879;22;20027;-83
2023/01/06 09:13:52;;;;;;;11.23;2.50;;;;;;;;;;6343299;22;20023;-83
2023/01/06 09:16:19;;;;;;;14.00;2.67;;;;;;;;;;6315972;22;20019;-82
2023/01/06 09:18:49;;;;;;;15.55;2.50;;;;;;;;;;6344161;22;20511;-83
2023/01/06 09:21:19;;;;;;;11.38;2.10;;;;;;;;;;6317740;22;20019;-83
2023/01/06 09:23:46;;;;;;;9.13;1.98;;;;;;;;;;6344768;22;20102;-81
2023/01/06 09:26:13;;;;;;;11.00;2.53;;;;;;;;;;6344811;22;20030;-82
2023/01/06 09:28:40;;;;;;;9.95;2.22;;;;;;;;;;6344665;22;20026;-83
2023/01/06 09:31:06;;;;;;;16.08;3.05;;;;;;;;;;6345032;22;20023;-83
2023/01/06 09:33:33;;;;;;;14.38;2.42;;;;;;;;;;6341645;22;20023;-83
2023/01/06 09:35:59;;;;;;;15.02;2.50;;;;;;;;;;6343143;22;20062;-84
2023/01/06 09:38:27;;;;;;;11.45;2.58;;;;;;;;;;6343316;22;20047;-82
2023/01/06 09:41:01;;;;;;;12.18;2.17;;;;;;;;;;6315702;22;20073;-82
2023/01/06 09:44:07;;;;;;;7.72;2.53;;;;;;;;;;6318388;22;20019;-79
2023/01/06 09:46:49;;;;;;;10.00;2.25;;;;;;;;;;6208629;22;20532;-81
2023/01/06 09:49:15;;;;;;;11.23;2.33;;;;;;;;;;6211811;23;20051;-81
2023/01/06 09:51:42;;;;;;;11.02;2.40;;;;;;;;;;6283489;22;20074;-81
2023/01/06 09:54:18;;;;;;;15.05;2.58;;;;;;;;;;6337159;22;20027;-81
2023/01/06 09:56:46;;;;;;;12.40;2.15;;;;;;;;;;6338531;22;20034;-81
2023/01/06 09:59:37;;;;;;;9.68;1.58;;;;;;;;;;6336352;22;20484;-81
2023/01/06 10:02:10;;;;;;;13.77;2.47;;;;;;;;;;6322587;22;20805;-81
2023/01/06 10:04:36;;;;;;;9.65;1.83;;;;;;;;;;6337911;22;20093;-81
2023/01/06 10:07:29;;;;;;;8.48;1.95;;;;;;;;;;6309985;22;20110;-81
2023/01/06 10:10:02;;;;;;;6.82;1.73;;;;;;;;;;6273615;22;20050;-81
2023/01/06 10:12:36;;;;;;;6.55;1.80;;;;;;;;;;6336515;22;20034;-81
2023/01/06 10:15:02;;;;;;;11.05;2.15;;;;;;;;;;6338481;22;20878;-81
2023/01/06 10:17:41;;;;;;;6.50;1.52;;;;;;;;;;6311651;22;20020;-81
2023/01/06 10:20:14;;;;;;;10.02;2.10;;;;;;;;;;6337680;22;20030;-81
2023/01/06 10:23:18;;;;;;;14.52;1.92;;;;;;;;;;6337968;22;20012;-81
2023/01/06 10:25:57;;;;;;;8.18;1.58;;;;;;;;;;6317146;22;20073;-80
2023/01/06 10:28:29;;;;;;;7.97;1.70;;;;;;;;;;6336782;22;20055;-80
2023/01/06 10:31:05;;;;;;;6.00;1.10;;;;;;;;;;6309923;22;20106;-80
2023/01/06 10:33:36;;;;;;;10.82;1.50;;;;;;;;;;6337387;22;20836;-81
2023/01/06 10:36:12;;;;;;;6.18;0.90;;;;;;;;;;6339417;22;20102;-80
2023/01/06 10:38:41;;;;;;;13.82;1.95;;;;;;;;;;6338802;22;20093;-80
2023/01/06 10:41:26;;;;;;;8.13;1.13;;;;;;;;;;6339000;22;20007;-80
2023/01/06 10:43:52;;;;;;;4.25;0.85;;;;;;;;;;6339456;22;20029;-80
2023/01/06 10:46:19;;;;;;;7.75;0.90;;;;;;;;;;6339861;22;20027;-81
2023/01/06 10:48:48;;;;;;;9.85;0.93;;;;;;;;;;6311251;22;20121;-80
2023/01/06 10:51:29;;;;;;;6.93;1.25;;;;;;;;;;6338488;22;20102;-80
2023/01/06 10:53:59;;;;;;;6.85;1.02;;;;;;;;;;6338524;22;20034;-80
2023/01/06 10:56:27;;;;;;;7.85;1.00;;;;;;;;;;6338461;22;20007;-80
2023/01/06 10:58:56;;;;;;;5.40;0.70;;;;;;;;;;6338889;22;20158;-80
2023/01/06 11:01:24;;;;;;;9.13;0.80;;;;;;;;;;6310387;22;20061;-80
2023/01/06 11:04:14;;;;;;;4.90;0.88;;;;;;;;;;6313410;22;20033;-82
2023/01/06 11:06:43;;;;;;;6.18;0.98;;;;;;;;;;6311690;22;20684;-80
2023/01/06 11:09:25;;;;;;;8.82;1.33;;;;;;;;;;6340909;22;20117;-80
2023/01/06 11:11:52;;;;;;;6.80;1.00;;;;;;;;;;6340359;22;20065;-80
2023/01/06 11:14:20;;;;;;;5.50;0.75;;;;;;;;;;6340690;22;20804;-80
2023/01/06 11:17:12;;;;;;;3.63;0.85;;;;;;;;;;6339666;22;20031;-80
2023/01/06 11:19:40;;;;;;;10.32;1.25;;;;;;;;;;6332180;22;20529;-80
2023/01/06 11:22:26;;;;;;;4.40;0.90;;;;;;;;;;6338400;22;20459;-80
2023/01/06 11:24:53;;;;;;;9.95;0.77;;;;;;;;;;6339768;22;20078;-81
2023/01/06 11:27:19;;;;;;;4.50;0.80;;;;;;;;;;6339463;22;20025;-81
2023/01/06 11:29:46;;;;;;;5.63;1.15;;;;;;;;;;6338962;22;20521;-81
2023/01/06 11:32:12;;;;;;;5.18;0.90;;;;;;;;;;6339042;22;20018;-81
2023/01/06 11:34:41;;;;;;;6.45;0.98;;;;;;;;;;6313230;22;20024;-81
2023/01/06 11:37:08;;;;;;;7.80;1.52;;;;;;;;;;6340668;22;20027;-81
2023/01/06 11:39:35;;;;;;;9.27;1.20;;;;;;;;;;6342487;22;20026;-81
2023/01/06 11:42:09;;;;;;;8.38;1.02;;;;;;;;;;6313764;22;20731;-80
2023/01/06 11:44:37;;;;;;;6.20;0.90;;;;;;;;;;6312009;22;20499;-81
2023/01/06 11:47:07;;;;;;;6.15;0.90;;;;;;;;;;6339343;22;20033;-81
2023/01/06 11:49:39;;;;;;;5.75;0.93;;;;;;;;;;6338187;22;20030;-80
2023/01/06 11:52:18;;;;;;;10.00;1.40;;;;;;;;;;6339516;22;20110;-80
2023/01/06 11:54:54;;;;;;;3.42;0.80;;;;;;;;;;6340284;22;20027;-80
2023/01/06 11:57:24;;;;;;;12.20;1.95;;;;;;;;;;6339761;22;20036;-80
2023/01/06 11:59:58;;;;;;;4.25;0.77;;;;;;;;;;6338810;22;20246;-80
2023/01/06 12:02:30;;;;;;;7.00;1.35;;;;;;;;;;6339202;22;20047;-81
2023/01/06 12:04:57;;;;;;;6.63;0.95;;;;;;;;;;6340245;22;20004;-80
2023/01/06 12:07:37;;;;;;;7.25;1.02;;;;;;;;;;6312218;22;20106;-80
2023/01/06 12:10:09;;;;;;;11.37;1.63;;;;;;;;;;6338844;22;20018;-80
2023/01/06 12:12:36;;;;;;;7.43;0.98;;;;;;;;;;6339919;22;20411;-80
2023/01/06 12:15:02;;;;;;;15.50;5.90;;;;;;;;;;6338697;22;20029;-80
2023/01/06 12:17:42;;;;;;;11.23;5.57;;;;;;;;;;6340584;22;20384;-80
2023/01/06 12:20:18;;;;;;;22.00;10.07;;;;;;;;;;6343502;22;20027;-81
2023/01/06 12:22:51;;;;;;;21.60;10.27;;;;;;;;;;6241269;22;20735;-81
2023/01/06 12:25:42;;;;;;;8.50;1.83;;;;;;;;;;6334018;22;20612;-81
2023/01/06 12:28:13;;;;;;;9.75;1.63;;;;;;;;;;6341882;22;20097;-81
2023/01/06 12:30:49;;;;;;;8.50;0.93;;;;;;;;;;6341893;22;20058;-81
2023/01/06 12:33:19;;;;;;;9.00;1.00;;;;;;;;;;6311331;22;20118;-81
2023/01/06 12:35:47;;;;;;;9.15;1.20;;;;;;;;;;6342091;22;20835;-81
2023/01/06 12:38:38;;;;;;;11.65;1.38;;;;;;;;;;6318104;22;20019;-81
2023/01/06 12:41:08;;;;;;;7.53;1.02;;;;;;;;;;6226690;22;20050;-81
2023/01/06 12:43:36;;;;;;;8.52;0.98;;;;;;;;;;6250187;22;20944;-80
2023/01/06 12:46:03;;;;;;;5.93;0.80;;;;;;;;;;6294830;22;20516;-80
2023/01/06 12:48:38;;;;;;;6.38;0.88;;;;;;;;;;6276582;22;20059;-81
2023/01/06 12:51:13;;;;;;;4.47;0.70;;;;;;;;;;6341984;22;20019;-80
2023/01/06 12:53:41;;;;;;;8.45;1.00;;;;;;;;;;6340235;22;20488;-81
2023/01/06 12:56:31;;;;;;;7.65;0.90;;;;;;;;;;6281504;22;20027;-81
2023/01/06 12:59:18;;;;;;;4.13;0.70;;;;;;;;;;6231061;22;20740;-80
2023/01/06 13:01:48;;;;;;;4.82;1.10;;;;;;;;;;6307246;22;20543;-80
2023/01/06 13:04:15;;;;;;;;;;;;;;;;;;6244993;22;20708;-80
2023/01/06 13:06:47;;;;;;;1.98;0.50;;;;;;;;;;6338636;22;45742;-80
2023/01/06 13:09:16;;;;;;;3.97;0.70;;;;;;;;;;6339600;22;20023;-80
2023/01/06 13:11:46;;;;;;;4.90;0.73;;;;;;;;;;6340499;22;20149;-81
2023/01/06 13:14:18;;;;;;;4.50;0.82;;;;;;;;;;6310771;22;20034;-81
2023/01/06 13:16:48;;;;;;;4.45;0.85;;;;;;;;;;6338581;22;20589;-80
2023/01/06 13:19:35;;;;;;;8.05;1.50;;;;;;;;;;6314205;22;20031;-81
2023/01/06 13:22:02;;;;;;;6.78;1.02;;;;;;;;;;6337753;22;20094;-81
2023/01/06 13:24:48;;;;;;;4.65;0.77;;;;;;;;;;6336728;22;20038;-79
2023/01/06 13:27:26;;;;;;;5.05;0.70;;;;;;;;;;6338737;22;20804;-81
2023/01/06 13:30:01;;;;;;;6.15;0.75;;;;;;;;;;6310695;22;20049;-80
2023/01/06 13:32:38;;;;;;;6.13;1.58;;;;;;;;;;6338656;22;20077;-81
2023/01/06 13:35:12;;;;;;;3.88;0.80;;;;;;;;;;6338405;22;20041;-80
2023/01/06 13:37:58;;;;;;;6.72;1.10;;;;;;;;;;6310340;22;20025;-80
2023/01/06 13:40:28;;;;;;;5.00;0.80;;;;;;;;;;6338648;22;20019;-80
2023/01/06 13:42:59;;;;;;;3.35;0.75;;;;;;;;;;6311003;22;20618;-80
2023/01/06 13:45:30;;;;;;;5.57;0.95;;;;;;;;;;6311919;22;20153;-80
2023/01/06 13:47:57;;;;;;;3.92;0.68;;;;;;;;;;6339425;22;20027;-80
2023/01/06 13:50:25;;;;;;;5.55;1.20;;;;;;;;;;6338524;22;20020;-80
2023/01/06 13:52:52;;;;;;;5.35;1.00;;;;;;;;;;6339629;22;20384;-80
2023/01/06 13:55:22;;;;;;;9.15;1.40;;;;;;;;;;6338870;22;20487;-80
2023/01/06 13:57:50;;;;;;;4.57;1.05;;;;;;;;;;6338950;22;20011;-80
2023/01/06 14:00:27;;;;;;;4.47;0.90;;;;;;;;;;6311793;22;20092;-81
2023/01/06 14:02:58;;;;;;;7.43;0.98;;;;;;;;;;6338601;22;20051;-80
2023/01/06 14:05:26;;;;;;;5.78;1.08;;;;;;;;;;6338603;22;20827;-81
2023/01/06 14:08:01;;;;;;;6.25;0.90;;;;;;;;;;6310081;22;20104;-81
2023/01/06 14:10:33;;;;;;;5.43;1.05;;;;;;;;;;6335920;22;20098;-81
2023/01/06 14:13:00;;;;;;;5.32;1.00;;;;;;;;;;6336258;22;20025;-81
2023/01/06 14:15:27;;;;;;;6.28;1.10;;;;;;;;;;6339478;22;20026;-81
2023/01/06 14:17:53;;;;;;;7.25;1.17;;;;;;;;;;6339288;22;20464;-80
2023/01/06 14:20:29;;;;;;;8.07;1.27;;;;;;;;;;6311379;22;20027;-81
2023/01/06 14:23:00;;;;;;;6.15;0.90;;;;;;;;;;6338834;22;20054;-80
2023/01/06 14:25:27;;;;;;;4.55;1.00;;;;;;;;;;6311753;22;20029;-80
2023/01/06 14:27:54;;;;;;;4.88;1.25;;;;;;;;;;6338630;22;20023;-81
2023/01/06 14:30:33;;;;;;;3.45;0.80;;;;;;;;;;6338453;22;20187;-80
2023/01/06 14:33:03;;;;;;;5.68;0.90;;;;;;;;;;6338652;22;20029;-81
2023/01/06 14:35:43;;;;;;;8.48;1.15;;;;;;;;;;6310305;22;20101;-81
2023/01/06 14:38:34;;;;;;;2.75;0.95;;;;;;;;;;6311098;22;20070;-80
2023/01/06 14:41:05;;;;;;;7.15;0.90;;;;;;;;;;6323460;22;20081;-81
2023/01/06 14:43:36;;;;;;;4.18;1.02;;;;;;;;;;6338976;22;20065;-81
2023/01/06 14:46:07;;;;;;;3.25;0.98;;;;;;;;;;6311076;22;20046;-81
2023/01/06 14:48:37;;;;;;;4.03;0.75;;;;;;;;;;6311350;22;20027;-81
2023/01/06 14:51:05;;;;;;;6.65;1.00;;;;;;;;;;6339250;22;20027;-81
2023/01/06 14:53:37;;;;;;;4.88;1.10;;;;;;;;;;6337087;22;20023;-81
2023/01/06 14:56:06;;;;;;;3.97;0.90;;;;;;;;;;6339142;22;20435;-81
2023/01/06 14:58:36;;;;;;;5.93;0.95;;;;;;;;;;6310054;22;20403;-81
2023/01/06 15:01:05;;;;;;;5.03;1.00;;;;;;;;;;6339590;22;20616;-81
2023/01/06 15:03:32;;;;;;;5.80;0.82;;;;;;;;;;6337964;22;20031;-81
2023/01/06 15:06:16;;;;;;;6.72;1.58;;;;;;;;;;6337624;22;20015;-81